Time;durP1;ratioP1;P1;durP2;ratioP2;P2;SDS_P1;SDS_P2;PMS_P1;PMS_P2;Temp;Humidity;BMP_temperature;BMP_pressure;BME280_temperature;BME280_humidity;BME280_pressure;Samples;Min_cycle;Max_cycle;Signal;HPM_P1;HPM_P2
2022/11/28 00:00:17;;;;;;;0.10;0.10;;;5.40;99.90;;;;;;5028691;28;20615;-70
2022/11/28 00:02:44;;;;;;;0.10;0.10;;;5.40;99.90;;;;;;5040296;28;20669;-70
2022/11/28 00:05:13;;;;;;;0.10;0.10;;;5.40;99.90;;;;;;5026383;28;20672;-70
2022/11/28 00:07:40;;;;;;;0.10;0.10;;;5.40;99.90;;;;;;5039950;28;21076;-69
2022/11/28 00:10:09;;;;;;;0.00;0.00;;;5.40;99.90;;;;;;5034924;28;20759;-70
2022/11/28 00:12:37;;;;;;;0.03;0.03;;;5.40;99.90;;;;;;5022298;28;20645;-70
2022/11/28 00:15:05;;;;;;;0.10;0.10;;;5.50;99.90;;;;;;5034844;28;20635;-70
2022/11/28 00:17:32;;;;;;;0.10;0.10;;;5.40;99.90;;;;;;5025827;28;20606;-71
2022/11/28 00:19:59;;;;;;;0.10;0.10;;;5.50;99.90;;;;;;5036086;28;21172;-71
2022/11/28 00:22:28;;;;;;;0.10;0.10;;;5.50;99.90;;;;;;5036236;28;20689;-71
2022/11/28 00:24:55;;;;;;;0.10;0.10;;;5.50;99.90;;;;;;5041225;28;20753;-70
2022/11/28 00:27:22;;;;;;;0.00;0.00;;;5.50;99.90;;;;;;5038326;28;20627;-70
2022/11/28 00:29:49;;;;;;;0.10;0.10;;;5.50;99.90;;;;;;5043970;28;20646;-71
2022/11/28 00:32:17;;;;;;;0.10;0.10;;;5.50;99.90;;;;;;5042546;28;20657;-70
2022/11/28 00:34:44;;;;;;;0.10;0.10;;;5.50;99.90;;;;;;5025960;28;20984;-70
2022/11/28 00:37:11;;;;;;;0.10;0.10;;;5.40;99.90;;;;;;5028811;28;21004;-70
2022/11/28 00:39:39;;;;;;;0.10;0.10;;;5.50;99.90;;;;;;5033302;28;20626;-70
2022/11/28 00:42:07;;;;;;;0.10;0.10;;;5.50;99.90;;;;;;5043056;28;20632;-70
2022/11/28 00:44:34;;;;;;;0.10;0.10;;;5.50;99.90;;;;;;5022909;28;20720;-71
2022/11/28 00:47:01;;;;;;;0.10;0.10;;;5.50;99.90;;;;;;5027312;28;20709;-70
2022/11/28 00:49:28;;;;;;;0.10;0.10;;;5.50;99.90;;;;;;5037743;28;20661;-71
2022/11/28 00:51:55;;;;;;;0.10;0.10;;;5.50;99.90;;;;;;5029077;28;20698;-70
2022/11/28 00:54:22;;;;;;;0.10;0.10;;;5.40;99.90;;;;;;5027808;28;21163;-70
2022/11/28 00:56:51;;;;;;;0.10;0.10;;;5.50;99.90;;;;;;5031193;28;20763;-70
2022/11/28 00:59:18;;;;;;;0.10;0.10;;;5.50;99.90;;;;;;5022347;28;20687;-69
2022/11/28 01:01:45;;;;;;;0.10;0.10;;;5.50;99.90;;;;;;5033868;28;20631;-71
2022/11/28 01:04:15;;;;;;;0.10;0.10;;;5.50;99.90;;;;;;5028018;28;20610;-71
2022/11/28 01:06:45;;;;;;;0.10;0.10;;;5.40;99.90;;;;;;5045785;28;20658;-70
2022/11/28 01:09:15;;;;;;;0.10;0.10;;;5.40;99.90;;;;;;5037254;28;20642;-71
2022/11/28 01:11:44;;;;;;;0.00;0.00;;;5.50;99.90;;;;;;5028492;28;20639;-71
2022/11/28 01:14:13;;;;;;;0.10;0.10;;;5.50;99.90;;;;;;5026275;28;20693;-71
2022/11/28 01:16:40;;;;;;;0.00;0.00;;;5.50;99.90;;;;;;5040094;28;20655;-69
2022/11/28 01:19:08;;;;;;;0.10;0.10;;;5.50;99.90;;;;;;5026974;28;20669;-71
2022/11/28 01:21:35;;;;;;;0.10;0.10;;;5.50;99.90;;;;;;5026519;28;20626;-70
2022/11/28 01:24:03;;;;;;;0.10;0.10;;;5.50;99.90;;;;;;5043758;28;20649;-71
2022/11/28 01:26:31;;;;;;;0.10;0.10;;;5.50;99.90;;;;;;5028437;28;21017;-71
2022/11/28 01:29:00;;;;;;;0.10;0.10;;;5.40;99.90;;;;;;5028178;28;20654;-72
2022/11/28 01:31:29;;;;;;;0.10;0.10;;;5.50;99.90;;;;;;5032402;28;20616;-71
2022/11/28 01:33:57;;;;;;;0.00;0.00;;;5.50;99.90;;;;;;5032210;28;20663;-70
2022/11/28 01:36:25;;;;;;;0.10;0.10;;;5.40;99.90;;;;;;5040883;28;20724;-70
2022/11/28 01:38:52;;;;;;;0.10;0.10;;;5.40;99.90;;;;;;5026597;28;20634;-71
2022/11/28 01:41:21;;;;;;;0.10;0.10;;;5.40;99.90;;;;;;5027221;28;21147;-70
2022/11/28 01:44:04;;;;;;;0.03;0.03;;;5.40;99.90;;;;;;5042297;28;20655;-71
2022/11/28 01:46:34;;;;;;;0.10;0.10;;;5.40;99.90;;;;;;5025978;28;20664;-71
2022/11/28 01:49:07;;;;;;;0.10;0.10;;;5.30;99.90;;;;;;5040783;28;20647;-70
2022/11/28 01:51:35;;;;;;;0.10;0.10;;;5.30;99.90;;;;;;5031095;28;20619;-71
2022/11/28 01:54:03;;;;;;;0.10;0.10;;;5.30;99.90;;;;;;5043119;28;20635;-71
2022/11/28 01:56:35;;;;;;;0.10;0.10;;;5.30;99.90;;;;;;5028886;28;20691;-71
2022/11/28 01:59:06;;;;;;;0.10;0.10;;;5.30;99.90;;;;;;5038743;28;20643;-70
2022/11/28 02:01:35;;;;;;;0.10;0.10;;;5.30;99.90;;;;;;5027763;28;20602;-71
2022/11/28 02:04:04;;;;;;;0.10;0.10;;;5.20;99.90;;;;;;5043047;28;20651;-70
2022/11/28 02:06:32;;;;;;;0.10;0.10;;;5.20;99.90;;;;;;5027048;28;20630;-70
2022/11/28 02:08:59;;;;;;;0.10;0.10;;;5.20;99.90;;;;;;5030625;28;20657;-70
2022/11/28 02:11:51;;;;;;;0.10;0.10;;;5.20;99.90;;;;;;5027694;28;20614;-71
2022/11/28 02:14:33;;;;;;;0.10;0.10;;;5.20;99.90;;;;;;5013311;28;20622;-71
2022/11/28 02:17:13;;;;;;;0.10;0.10;;;5.20;99.90;;;;;;5025215;28;20666;-70
2022/11/28 02:20:27;;;;;;;0.10;0.10;;;5.10;99.90;;;;;;5026079;28;20710;-71
2022/11/28 02:23:03;;;;;;;0.10;0.10;;;5.10;99.90;;;;;;5024220;28;20614;-71
2022/11/28 02:25:58;;;;;;;0.00;0.00;;;5.10;99.90;;;;;;5026497;28;20696;-70
2022/11/28 02:28:48;;;;;;;0.00;0.00;;;5.10;99.90;;;;;;5023885;28;20603;-71
2022/11/28 02:31:28;;;;;;;0.10;0.10;;;5.10;99.90;;;;;;5042392;28;20622;-70
2022/11/28 02:34:01;;;;;;;0.10;0.10;;;5.10;99.90;;;;;;5026548;28;20606;-70
2022/11/28 02:36:32;;;;;;;0.00;0.00;;;5.10;99.90;;;;;;5030200;28;20658;-70
2022/11/28 02:39:13;;;;;;;0.10;0.10;;;5.10;99.90;;;;;;5038836;28;20630;-72
2022/11/28 02:41:45;;;;;;;0.10;0.10;;;5.10;99.90;;;;;;5035940;28;20654;-70
2022/11/28 02:44:16;;;;;;;0.10;0.10;;;5.00;99.90;;;;;;5041856;28;21031;-69
2022/11/28 02:46:49;;;;;;;0.00;0.00;;;5.00;99.90;;;;;;5034248;28;21099;-69
2022/11/28 02:49:21;;;;;;;0.10;0.10;;;5.00;99.90;;;;;;5038409;28;20663;-69
2022/11/28 02:51:55;;;;;;;0.10;0.10;;;5.00;99.90;;;;;;5027064;28;20606;-69
2022/11/28 02:54:25;;;;;;;0.10;0.10;;;5.00;99.90;;;;;;5026454;28;20603;-69
2022/11/28 02:56:54;;;;;;;0.10;0.10;;;5.00;99.90;;;;;;5022862;28;20642;-69
2022/11/28 02:59:44;;;;;;;0.10;0.10;;;4.90;99.90;;;;;;5027270;28;20615;-69
2022/11/28 03:02:15;;;;;;;0.10;0.10;;;5.00;99.90;;;;;;5024550;28;20717;-69
2022/11/28 03:04:53;;;;;;;0.10;0.10;;;5.00;99.90;;;;;;5025164;28;20618;-69
2022/11/28 03:07:34;;;;;;;0.10;0.10;;;5.00;99.90;;;;;;5033873;28;20614;-70
2022/11/28 03:10:14;;;;;;;0.10;0.10;;;5.00;99.90;;;;;;5033755;28;20655;-70
2022/11/28 03:12:55;;;;;;;0.10;0.10;;;4.90;99.90;;;;;;5023193;28;20634;-69
2022/11/28 03:15:32;;;;;;;0.10;0.10;;;4.90;99.90;;;;;;5038184;28;20712;-72
2022/11/28 03:18:07;;;;;;;0.10;0.10;;;4.90;99.90;;;;;;5023888;28;20610;-72
2022/11/28 03:20:44;;;;;;;0.10;0.10;;;4.90;99.90;;;;;;5040957;28;20672;-72
2022/11/28 03:23:15;;;;;;;0.10;0.10;;;4.90;99.90;;;;;;5038093;28;20663;-72
2022/11/28 03:25:53;;;;;;;0.10;0.10;;;4.90;99.90;;;;;;5026025;28;20634;-72
2022/11/28 03:28:26;;;;;;;0.00;0.00;;;4.90;99.90;;;;;;5036719;28;20625;-72
2022/11/28 03:30:58;;;;;;;0.10;0.10;;;4.90;99.90;;;;;;5036851;28;20691;-72
2022/11/28 03:33:30;;;;;;;0.10;0.10;;;4.90;99.90;;;;;;5019172;28;20620;-72
2022/11/28 03:36:05;;;;;;;0.00;0.00;;;4.90;99.90;;;;;;5034875;28;20754;-69
2022/11/28 03:38:37;;;;;;;0.10;0.10;;;4.90;99.90;;;;;;5023805;28;20606;-69
2022/11/28 03:41:09;;;;;;;0.10;0.10;;;4.90;99.90;;;;;;5034515;28;20612;-69
2022/11/28 03:43:49;;;;;;;0.10;0.10;;;4.90;99.90;;;;;;5025722;28;20610;-69
2022/11/28 03:46:20;;;;;;;0.00;0.00;;;4.90;99.90;;;;;;5035134;28;20725;-70
2022/11/28 03:48:51;;;;;;;0.10;0.10;;;4.90;99.90;;;;;;5027409;28;21274;-71
2022/11/28 03:51:27;;;;;;;0.10;0.10;;;4.80;99.90;;;;;;5023916;28;20623;-70
2022/11/28 03:54:00;;;;;;;0.00;0.00;;;4.80;99.90;;;;;;5025904;28;20619;-70
2022/11/28 03:56:38;;;;;;;0.00;0.00;;;4.80;99.90;;;;;;5030706;28;20658;-70
2022/11/28 03:59:13;;;;;;;0.10;0.10;;;4.80;99.90;;;;;;5038824;28;20619;-71
2022/11/28 04:01:50;;;;;;;0.00;0.00;;;4.80;99.90;;;;;;5030095;28;20610;-71
2022/11/28 04:04:27;;;;;;;0.10;0.10;;;4.80;99.90;;;;;;5029999;28;20658;-70
2022/11/28 04:07:00;;;;;;;0.10;0.10;;;4.80;99.90;;;;;;5019290;28;20843;-69
2022/11/28 04:09:41;;;;;;;0.10;0.10;;;5.10;99.90;;;;;;5029384;28;20708;-69
2022/11/28 04:12:16;;;;;;;0.10;0.10;;;5.00;99.90;;;;;;5034820;28;20625;-70
2022/11/28 04:14:49;;;;;;;0.10;0.10;;;4.90;99.90;;;;;;5028616;28;20764;-69
2022/11/28 04:17:19;;;;;;;0.10;0.10;;;4.90;99.90;;;;;;5028822;28;20294;-69
2022/11/28 04:19:51;;;;;;;0.10;0.10;;;4.90;99.90;;;;;;5027730;28;20619;-70
2022/11/28 04:22:24;;;;;;;0.00;0.00;;;4.90;99.90;;;;;;5020559;28;20643;-71
2022/11/28 04:24:55;;;;;;;0.10;0.10;;;4.90;99.90;;;;;;5044507;28;20717;-71
2022/11/28 04:27:27;;;;;;;0.10;0.10;;;4.90;99.90;;;;;;5023799;28;20654;-70
2022/11/28 04:29:59;;;;;;;0.10;0.10;;;4.90;99.90;;;;;;5044394;28;20678;-70
2022/11/28 04:32:29;;;;;;;0.10;0.10;;;4.90;99.90;;;;;;5025989;28;20618;-70
2022/11/28 04:35:02;;;;;;;0.10;0.10;;;4.80;99.90;;;;;;5026552;28;20645;-69
2022/11/28 04:37:34;;;;;;;0.10;0.10;;;4.90;99.90;;;;;;5026106;28;20611;-70
2022/11/28 04:40:02;;;;;;;0.10;0.10;;;4.80;99.90;;;;;;5039901;28;20657;-69
2022/11/28 04:42:33;;;;;;;0.10;0.10;;;4.90;99.90;;;;;;5035181;28;21009;-69
2022/11/28 04:45:08;;;;;;;0.10;0.10;;;4.90;99.90;;;;;;5025582;28;20619;-71
2022/11/28 04:47:35;;;;;;;0.10;0.10;;;4.80;99.90;;;;;;5036489;28;20622;-70
2022/11/28 04:50:02;;;;;;;0.10;0.10;;;4.80;99.90;;;;;;5029154;28;21202;-71
2022/11/28 04:52:39;;;;;;;0.10;0.10;;;4.80;99.90;;;;;;5028661;28;20701;-70
2022/11/28 04:55:12;;;;;;;0.10;0.10;;;4.80;99.90;;;;;;5038531;28;20707;-70
2022/11/28 04:57:43;;;;;;;0.10;0.10;;;4.80;99.90;;;;;;5025451;28;20720;-72
2022/11/28 05:00:12;;;;;;;0.10;0.10;;;4.70;99.90;;;;;;5026354;28;20638;-70
2022/11/28 05:02:41;;;;;;;0.10;0.10;;;4.80;99.90;;;;;;5027198;28;20650;-70
2022/11/28 05:05:11;;;;;;;0.10;0.10;;;4.80;99.90;;;;;;5038807;28;20639;-70
2022/11/28 05:07:40;;;;;;;0.10;0.10;;;4.80;99.90;;;;;;5039750;28;20629;-70
2022/11/28 05:10:08;;;;;;;0.10;0.10;;;4.70;99.90;;;;;;5027120;28;20662;-70
2022/11/28 05:12:35;;;;;;;0.10;0.10;;;4.80;99.90;;;;;;5041459;28;21103;-70
2022/11/28 05:15:02;;;;;;;0.10;0.10;;;4.70;99.90;;;;;;5036866;28;20782;-70
2022/11/28 05:17:30;;;;;;;0.10;0.10;;;4.80;99.90;;;;;;5035318;28;20630;-70
2022/11/28 05:19:57;;;;;;;0.10;0.10;;;4.70;99.90;;;;;;5019536;28;20622;-70
2022/11/28 05:22:24;;;;;;;0.10;0.10;;;4.70;99.90;;;;;;5034513;28;20627;-70
2022/11/28 05:24:53;;;;;;;0.10;0.10;;;4.70;99.90;;;;;;5043369;28;20637;-69
2022/11/28 05:27:19;;;;;;;0.10;0.10;;;4.70;99.90;;;;;;5027009;28;20650;-69
2022/11/28 05:29:47;;;;;;;0.10;0.10;;;4.70;99.90;;;;;;5026871;28;20677;-69
2022/11/28 05:32:14;;;;;;;0.10;0.10;;;4.70;99.90;;;;;;5039940;28;20657;-70
2022/11/28 05:34:41;;;;;;;0.10;0.10;;;4.70;99.90;;;;;;5028242;28;20707;-70
2022/11/28 05:37:08;;;;;;;0.10;0.10;;;4.70;99.90;;;;;;5026259;28;20646;-69
2022/11/28 05:39:35;;;;;;;0.10;0.10;;;4.70;99.90;;;;;;5027094;28;20613;-69
2022/11/28 05:42:04;;;;;;;0.00;0.00;;;4.70;99.90;;;;;;5027587;28;20656;-69
2022/11/28 05:44:31;;;;;;;0.10;0.10;;;4.70;99.90;;;;;;5041446;28;20648;-69
2022/11/28 05:46:58;;;;;;;0.00;0.00;;;4.70;99.90;;;;;;5022043;28;20674;-69
2022/11/28 05:49:25;;;;;;;0.10;0.10;;;4.70;99.90;;;;;;5027638;28;20698;-69
2022/11/28 05:51:52;;;;;;;0.10;0.10;;;4.70;99.90;;;;;;5040085;28;20658;-69
2022/11/28 05:54:19;;;;;;;0.10;0.10;;;4.70;99.90;;;;;;5025814;28;20634;-69
2022/11/28 05:56:46;;;;;;;0.10;0.10;;;4.70;99.90;;;;;;5025179;28;20705;-69
2022/11/28 05:59:15;;;;;;;0.10;0.10;;;4.70;99.90;;;;;;5027855;28;20622;-69
2022/11/28 06:01:42;;;;;;;0.03;0.03;;;4.70;99.90;;;;;;5021918;28;20620;-69
2022/11/28 06:04:09;;;;;;;0.10;0.10;;;4.70;99.90;;;;;;5036884;28;20661;-70
2022/11/28 06:06:37;;;;;;;0.10;0.10;;;4.70;99.90;;;;;;5024369;28;20695;-69
2022/11/28 06:09:05;;;;;;;0.10;0.10;;;4.70;99.90;;;;;;5029562;28;20628;-69
2022/11/28 06:11:34;;;;;;;0.10;0.10;;;4.70;99.90;;;;;;5034377;28;20659;-69
2022/11/28 06:14:01;;;;;;;0.10;0.10;;;4.60;99.90;;;;;;5038068;28;20634;-70
2022/11/28 06:16:31;;;;;;;0.10;0.10;;;4.60;99.90;;;;;;5024936;28;20651;-69
2022/11/28 06:19:00;;;;;;;0.00;0.00;;;4.60;99.90;;;;;;5026364;28;20595;-69
2022/11/28 06:21:28;;;;;;;0.10;0.10;;;4.60;99.90;;;;;;5028968;28;20654;-69
2022/11/28 06:23:57;;;;;;;0.10;0.10;;;4.60;99.90;;;;;;5027349;28;20623;-70
2022/11/28 06:26:25;;;;;;;0.00;0.00;;;4.50;99.90;;;;;;5026986;28;20638;-70
2022/11/28 06:28:54;;;;;;;0.10;0.10;;;4.50;99.90;;;;;;5030451;28;20657;-69
2022/11/28 06:31:22;;;;;;;0.10;0.10;;;4.50;99.90;;;;;;5025849;28;20647;-70
2022/11/28 06:33:51;;;;;;;0.10;0.10;;;4.50;99.90;;;;;;5026644;28;20610;-69
2022/11/28 06:36:19;;;;;;;0.10;0.10;;;4.40;99.90;;;;;;5035855;28;20749;-69
2022/11/28 06:38:47;;;;;;;0.10;0.10;;;4.40;99.90;;;;;;5038738;28;20632;-69
2022/11/28 06:41:16;;;;;;;0.03;0.03;;;4.40;99.90;;;;;;5024815;28;20680;-70
2022/11/28 06:43:44;;;;;;;0.10;0.10;;;4.40;99.90;;;;;;5036808;28;20635;-69
2022/11/28 06:46:12;;;;;;;0.10;0.10;;;4.40;99.90;;;;;;5035235;28;20682;-70
2022/11/28 06:48:40;;;;;;;0.10;0.10;;;4.40;99.90;;;;;;5027047;28;20692;-69
2022/11/28 06:51:08;;;;;;;0.10;0.10;;;4.40;99.90;;;;;;5030556;28;20669;-70
2022/11/28 06:53:36;;;;;;;0.10;0.10;;;4.40;99.90;;;;;;5027036;28;20690;-69
2022/11/28 06:56:07;;;;;;;0.10;0.10;;;4.40;99.90;;;;;;5029157;28;20759;-70
2022/11/28 06:58:35;;;;;;;0.10;0.10;;;4.50;99.90;;;;;;5037846;28;20624;-69
2022/11/28 07:01:06;;;;;;;0.00;0.00;;;4.50;99.90;;;;;;5025488;28;20622;-69
2022/11/28 07:03:34;;;;;;;0.10;0.10;;;4.40;99.90;;;;;;5026632;28;20711;-69
2022/11/28 07:06:01;;;;;;;0.10;0.10;;;4.50;99.90;;;;;;5036509;28;20681;-69
2022/11/28 07:08:30;;;;;;;0.10;0.10;;;4.50;99.90;;;;;;5026860;28;20642;-69
2022/11/28 07:10:57;;;;;;;0.10;0.10;;;4.40;99.90;;;;;;5022747;28;20663;-69
2022/11/28 07:13:25;;;;;;;0.00;0.00;;;4.40;99.90;;;;;;5026486;28;20607;-70
2022/11/28 07:15:52;;;;;;;0.10;0.10;;;4.50;99.90;;;;;;5036334;28;20753;-68
2022/11/28 07:18:19;;;;;;;0.10;0.10;;;4.50;99.90;;;;;;5025432;28;20622;-70
2022/11/28 07:20:46;;;;;;;0.10;0.10;;;4.50;99.90;;;;;;5033839;28;20615;-70
2022/11/28 07:23:13;;;;;;;0.10;0.10;;;4.50;99.90;;;;;;5029684;28;20622;-70
2022/11/28 07:25:42;;;;;;;0.10;0.10;;;4.50;99.90;;;;;;5024918;28;20662;-69
2022/11/28 07:28:09;;;;;;;0.10;0.10;;;4.50;99.90;;;;;;5035600;28;20721;-70
2022/11/28 07:30:36;;;;;;;0.10;0.10;;;4.50;99.90;;;;;;5026742;28;20720;-70
2022/11/28 07:33:03;;;;;;;0.10;0.10;;;4.50;99.90;;;;;;5027336;28;20618;-70
2022/11/28 07:35:32;;;;;;;0.10;0.10;;;4.50;99.90;;;;;;5030780;28;20638;-70
2022/11/28 07:38:00;;;;;;;0.10;0.10;;;4.50;99.90;;;;;;5043198;28;20670;-70
2022/11/28 07:40:27;;;;;;;0.00;0.00;;;4.50;99.90;;;;;;5034372;28;20642;-70
2022/11/28 07:42:56;;;;;;;0.10;0.10;;;4.50;99.90;;;;;;5028421;28;20606;-69
2022/11/28 07:45:23;;;;;;;0.10;0.10;;;4.50;99.90;;;;;;5036211;28;20646;-70
2022/11/28 07:47:50;;;;;;;0.10;0.10;;;4.50;99.90;;;;;;5029828;28;20614;-69
2022/11/28 07:50:17;;;;;;;0.10;0.10;;;4.60;99.90;;;;;;5030208;28;20606;-69
2022/11/28 07:52:45;;;;;;;0.10;0.10;;;4.60;99.90;;;;;;5030617;28;20654;-70
2022/11/28 07:55:12;;;;;;;0.10;0.10;;;4.60;99.90;;;;;;5042079;28;20634;-69
2022/11/28 07:57:39;;;;;;;0.00;0.00;;;4.60;99.90;;;;;;5026432;28;20629;-69
2022/11/28 08:00:09;;;;;;;0.10;0.10;;;4.70;99.90;;;;;;5030890;28;20606;-70
2022/11/28 08:02:39;;;;;;;0.10;0.10;;;4.70;99.90;;;;;;5029380;28;20625;-70
2022/11/28 08:05:07;;;;;;;0.10;0.10;;;4.70;99.90;;;;;;5030490;28;20610;-69
2022/11/28 08:07:34;;;;;;;0.10;0.10;;;4.70;99.90;;;;;;5032987;28;20633;-70
2022/11/28 08:10:01;;;;;;;0.10;0.10;;;4.70;99.90;;;;;;5042103;28;20674;-70
2022/11/28 08:12:28;;;;;;;0.10;0.10;;;4.80;99.90;;;;;;5028745;28;20704;-70
2022/11/28 08:14:55;;;;;;;0.10;0.10;;;4.80;99.90;;;;;;5038392;28;20667;-70
2022/11/28 08:17:23;;;;;;;0.10;0.10;;;4.90;99.90;;;;;;5036755;28;20654;-70
2022/11/28 08:19:51;;;;;;;0.03;0.03;;;4.90;99.90;;;;;;5044432;28;20676;-69
2022/11/28 08:22:18;;;;;;;0.10;0.10;;;4.90;99.90;;;;;;5040532;28;20638;-70
2022/11/28 08:24:45;;;;;;;0.03;0.03;;;4.90;99.90;;;;;;5043538;28;20632;-70
2022/11/28 08:27:12;;;;;;;0.10;0.10;;;4.90;99.90;;;;;;5029600;28;20704;-70
2022/11/28 08:29:39;;;;;;;0.00;0.00;;;4.90;99.90;;;;;;5027827;28;20623;-70
2022/11/28 08:32:06;;;;;;;0.10;0.10;;;4.90;99.90;;;;;;5028959;28;20676;-69
2022/11/28 08:34:35;;;;;;;0.10;0.10;;;4.90;99.90;;;;;;5032647;28;20602;-70
2022/11/28 08:37:02;;;;;;;0.10;0.10;;;4.90;99.90;;;;;;5028711;28;20638;-69
2022/11/28 08:39:29;;;;;;;0.00;0.00;;;4.90;99.90;;;;;;5029290;28;20609;-70
2022/11/28 08:41:57;;;;;;;0.10;0.10;;;5.00;99.90;;;;;;5040025;28;20626;-70
2022/11/28 08:44:25;;;;;;;0.10;0.10;;;4.90;99.90;;;;;;5027772;28;20634;-70
2022/11/28 08:46:52;;;;;;;0.10;0.10;;;4.90;99.90;;;;;;5026559;28;20647;-70
2022/11/28 08:49:20;;;;;;;0.10;0.10;;;4.90;99.90;;;;;;5034430;28;20618;-69
2022/11/28 08:51:49;;;;;;;0.10;0.10;;;4.90;99.90;;;;;;5033046;28;20657;-69
2022/11/28 08:54:16;;;;;;;0.10;0.10;;;4.90;99.90;;;;;;5032791;28;20678;-70
2022/11/28 08:56:44;;;;;;;0.10;0.10;;;4.90;99.90;;;;;;5032078;28;20651;-71
2022/11/28 08:59:11;;;;;;;0.10;0.10;;;4.90;99.90;;;;;;5038622;28;20721;-70
2022/11/28 09:01:39;;;;;;;0.10;0.10;;;4.90;99.90;;;;;;5038780;28;20638;-70
2022/11/28 09:04:06;;;;;;;0.10;0.10;;;4.90;99.90;;;;;;5028645;28;20987;-69
2022/11/28 09:06:33;;;;;;;0.10;0.10;;;4.90;99.90;;;;;;5043310;28;20659;-70
2022/11/28 09:09:02;;;;;;;0.10;0.10;;;4.90;99.90;;;;;;5027621;28;20634;-70
2022/11/28 09:11:29;;;;;;;0.10;0.10;;;4.90;99.90;;;;;;5038457;28;20717;-69
2022/11/28 09:13:56;;;;;;;0.10;0.10;;;5.00;99.90;;;;;;5036016;28;20630;-70
2022/11/28 09:16:23;;;;;;;0.00;0.00;;;4.90;99.90;;;;;;5027800;28;20634;-70
2022/11/28 09:18:51;;;;;;;0.10;0.10;;;5.00;99.90;;;;;;5028983;28;20598;-69
2022/11/28 09:21:18;;;;;;;0.03;0.03;;;5.00;99.90;;;;;;5022863;28;21187;-70
2022/11/28 09:23:45;;;;;;;0.10;0.10;;;5.00;99.90;;;;;;5028134;28;20607;-70
2022/11/28 09:26:16;;;;;;;0.10;0.10;;;5.00;99.90;;;;;;5026856;28;20642;-70
2022/11/28 09:28:43;;;;;;;0.10;0.10;;;5.00;99.90;;;;;;5028136;28;20610;-70
2022/11/28 09:31:11;;;;;;;0.10;0.10;;;5.00;99.90;;;;;;5038768;28;20719;-69
2022/11/28 09:33:38;;;;;;;0.10;0.10;;;5.00;99.90;;;;;;5026641;28;20628;-69
2022/11/28 09:36:08;;;;;;;0.10;0.10;;;5.00;99.90;;;;;;5034891;28;21035;-70
2022/11/28 09:38:36;;;;;;;0.10;0.10;;;5.00;99.90;;;;;;5040950;28;20721;-70
2022/11/28 09:41:04;;;;;;;0.10;0.10;;;5.00;99.90;;;;;;5037272;28;20642;-70
2022/11/28 09:43:38;;;;;;;0.10;0.10;;;5.00;99.90;;;;;;5028194;28;20611;-70
2022/11/28 09:46:11;;;;;;;0.00;0.00;;;5.00;99.90;;;;;;5026648;28;20645;-70
2022/11/28 09:48:41;;;;;;;0.10;0.10;;;5.00;99.90;;;;;;5028993;28;20676;-70
2022/11/28 09:51:21;;;;;;;0.10;0.10;;;5.00;99.90;;;;;;5031987;28;20686;-69
2022/11/28 09:54:00;;;;;;;0.10;0.10;;;5.00;99.90;;;;;;5027528;28;20719;-70
2022/11/28 09:56:27;;;;;;;0.10;0.10;;;5.00;99.90;;;;;;5025279;28;20654;-70
2022/11/28 09:59:01;;;;;;;0.10;0.10;;;5.00;99.90;;;;;;5027734;28;20619;-70
2022/11/28 10:01:36;;;;;;;0.10;0.10;;;5.00;99.90;;;;;;5028181;28;20604;-72
2022/11/28 10:04:10;;;;;;;0.10;0.10;;;5.00;99.90;;;;;;5028115;28;20633;-70
2022/11/28 10:06:45;;;;;;;0.10;0.10;;;5.00;99.90;;;;;;5038006;28;20667;-70
2022/11/28 10:09:25;;;;;;;0.10;0.10;;;5.00;99.90;;;;;;5042199;28;20645;-69
2022/11/28 10:12:06;;;;;;;0.00;0.00;;;5.10;99.90;;;;;;5041030;28;20671;-69
2022/11/28 10:15:01;;;;;;;0.10;0.10;;;5.10;99.90;;;;;;5027646;28;21281;-69
2022/11/28 10:17:43;;;;;;;0.10;0.10;;;5.10;99.90;;;;;;5039126;28;20660;-68
2022/11/28 10:20:16;;;;;;;0.10;0.10;;;5.10;99.90;;;;;;5030982;28;20660;-70
2022/11/28 10:22:47;;;;;;;0.10;0.10;;;5.10;99.90;;;;;;5026371;28;20744;-70
2022/11/28 10:25:20;;;;;;;0.10;0.10;;;5.10;99.90;;;;;;5039132;28;20639;-70
2022/11/28 10:27:49;;;;;;;0.10;0.10;;;5.20;99.90;;;;;;5027359;28;20615;-69
2022/11/28 10:30:22;;;;;;;0.10;0.10;;;5.20;99.90;;;;;;5027200;28;20622;-69
2022/11/28 10:33:00;;;;;;;0.10;0.10;;;5.30;99.90;;;;;;5041987;28;20773;-69
2022/11/28 10:35:34;;;;;;;0.10;0.10;;;5.30;99.90;;;;;;5033686;28;20668;-70
2022/11/28 10:38:01;;;;;;;0.10;0.10;;;5.40;99.90;;;;;;5038143;28;20634;-69
2022/11/28 10:40:39;;;;;;;0.10;0.10;;;5.40;99.90;;;;;;5027106;28;20709;-69
2022/11/28 10:43:16;;;;;;;0.00;0.00;;;5.50;99.90;;;;;;5027085;28;20598;-70
2022/11/28 10:45:52;;;;;;;0.10;0.10;;;5.50;99.90;;;;;;5032084;28;20662;-69
2022/11/28 10:48:31;;;;;;;0.10;0.10;;;5.50;99.90;;;;;;5023047;28;20668;-69
2022/11/28 10:51:09;;;;;;;0.10;0.10;;;5.50;99.90;;;;;;5025482;28;20729;-69
2022/11/28 10:53:45;;;;;;;0.03;0.03;;;5.50;99.90;;;;;;5039184;28;20623;-69
2022/11/28 10:56:21;;;;;;;0.10;0.10;;;5.60;99.90;;;;;;5034834;28;20653;-69
2022/11/28 10:58:58;;;;;;;0.10;0.10;;;5.60;99.90;;;;;;5025513;28;20626;-69
2022/11/28 11:01:31;;;;;;;0.10;0.10;;;5.70;99.90;;;;;;5023742;28;20602;-69
2022/11/28 11:03:58;;;;;;;0.10;0.10;;;5.70;99.90;;;;;;5035285;28;20693;-69
2022/11/28 11:06:26;;;;;;;0.10;0.10;;;5.80;99.90;;;;;;5043945;28;20650;-69
2022/11/28 11:08:53;;;;;;;0.07;0.07;;;5.80;99.90;;;;;;5021899;28;20627;-69
2022/11/28 11:11:26;;;;;;;0.10;0.10;;;5.80;99.90;;;;;;5029066;28;20619;-69
2022/11/28 11:14:02;;;;;;;0.10;0.10;;;5.90;99.90;;;;;;5022384;28;20621;-70
2022/11/28 11:16:49;;;;;;;0.10;0.10;;;5.90;99.90;;;;;;5028271;28;21021;-69
2022/11/28 11:19:24;;;;;;;0.10;0.10;;;6.00;99.90;;;;;;5017287;28;20689;-70
2022/11/28 11:22:00;;;;;;;0.10;0.10;;;6.00;99.90;;;;;;5026885;28;20705;-69
2022/11/28 11:24:28;;;;;;;0.10;0.10;;;6.00;99.90;;;;;;5025457;28;20716;-69
2022/11/28 11:27:04;;;;;;;0.10;0.10;;;6.10;99.90;;;;;;5037899;28;20757;-70
2022/11/28 11:29:34;;;;;;;0.10;0.10;;;6.00;99.90;;;;;;5026638;28;20618;-70
2022/11/28 11:32:05;;;;;;;0.10;0.10;;;6.00;99.90;;;;;;5036913;28;20662;-70
2022/11/28 11:34:38;;;;;;;0.00;0.00;;;6.00;99.90;;;;;;5041601;28;20721;-70
2022/11/28 11:37:20;;;;;;;0.10;0.10;;;6.00;99.90;;;;;;5024332;28;20731;-68
2022/11/28 11:39:50;;;;;;;0.10;0.10;;;6.10;99.90;;;;;;5024624;28;20630;-70
2022/11/28 11:42:21;;;;;;;0.10;0.10;;;6.10;99.90;;;;;;5025184;28;20623;-69
2022/11/28 11:44:49;;;;;;;0.10;0.10;;;6.10;99.90;;;;;;5025027;28;20657;-70
2022/11/28 11:47:18;;;;;;;0.10;0.10;;;6.10;99.90;;;;;;5027971;28;20731;-69
2022/11/28 11:49:46;;;;;;;0.10;0.10;;;6.10;99.90;;;;;;5040255;28;20622;-69
2022/11/28 11:52:18;;;;;;;0.10;0.10;;;6.10;99.90;;;;;;5025449;28;20650;-70
2022/11/28 11:54:56;;;;;;;0.10;0.10;;;6.20;99.90;;;;;;5024268;28;20650;-69
2022/11/28 11:57:26;;;;;;;0.10;0.10;;;6.20;99.90;;;;;;5025503;28;20701;-69
2022/11/28 11:59:56;;;;;;;0.10;0.10;;;6.20;99.90;;;;;;5018924;28;20602;-69
2022/11/28 12:02:31;;;;;;;0.10;0.10;;;6.20;99.90;;;;;;5040846;28;21206;-69
2022/11/28 12:05:03;;;;;;;0.03;0.03;;;6.20;99.90;;;;;;5025226;28;20626;-69
2022/11/28 12:07:36;;;;;;;0.10;0.10;;;6.20;99.90;;;;;;5025530;28;20714;-70
2022/11/28 12:10:05;;;;;;;0.10;0.10;;;6.20;99.90;;;;;;5026088;28;21148;-71
2022/11/28 12:12:36;;;;;;;0.10;0.10;;;6.20;99.90;;;;;;5035108;28;20718;-70
2022/11/28 12:15:04;;;;;;;0.00;0.00;;;6.20;99.90;;;;;;5024945;28;20681;-70
2022/11/28 12:17:45;;;;;;;0.10;0.10;;;6.20;99.90;;;;;;5026023;28;20638;-71
2022/11/28 12:20:36;;;;;;;0.10;0.10;;;6.20;99.90;;;;;;5040233;28;20630;-70
2022/11/28 12:23:13;;;;;;;0.10;0.10;;;6.20;99.90;;;;;;5028000;28;20606;-70
2022/11/28 12:25:46;;;;;;;0.03;0.03;;;6.30;99.90;;;;;;5042803;28;20660;-70
2022/11/28 12:28:23;;;;;;;0.10;0.10;;;6.30;99.90;;;;;;5029363;28;20712;-69
2022/11/28 12:31:07;;;;;;;0.10;0.10;;;6.30;99.90;;;;;;5026416;28;20626;-70
2022/11/28 12:33:46;;;;;;;0.10;0.10;;;6.30;99.90;;;;;;5026879;28;20761;-69
2022/11/28 12:36:23;;;;;;;0.10;0.10;;;6.30;99.90;;;;;;5025705;28;20654;-69
2022/11/28 12:39:05;;;;;;;0.00;0.00;;;6.30;99.90;;;;;;5030151;28;20645;-69
2022/11/28 12:41:46;;;;;;;0.10;0.10;;;6.30;99.90;;;;;;5024171;28;20630;-70
2022/11/28 12:44:24;;;;;;;0.10;0.10;;;6.30;99.90;;;;;;5028744;28;20602;-69
2022/11/28 12:46:59;;;;;;;0.00;0.00;;;6.30;99.90;;;;;;5029167;28;21273;-69
2022/11/28 12:49:38;;;;;;;0.10;0.10;;;6.40;99.90;;;;;;5032163;28;20974;-70
2022/11/28 12:52:15;;;;;;;0.10;0.10;;;6.40;99.90;;;;;;5045375;28;20719;-71
2022/11/28 12:54:53;;;;;;;0.10;0.10;;;6.40;99.90;;;;;;5027787;28;20712;-69
2022/11/28 12:57:27;;;;;;;0.10;0.10;;;6.40;99.90;;;;;;5039756;28;20649;-68
2022/11/28 13:00:02;;;;;;;0.10;0.10;;;6.40;99.90;;;;;;5025758;28;20602;-70
2022/11/28 13:02:38;;;;;;;0.10;0.10;;;6.30;99.90;;;;;;5038321;28;20629;-70
2022/11/28 13:05:29;;;;;;;0.10;0.10;;;6.30;99.90;;;;;;5042652;28;20626;-70
2022/11/28 13:08:23;;;;;;;0.10;0.10;;;6.40;99.90;;;;;;5022337;28;20657;-70
2022/11/28 13:10:58;;;;;;;0.10;0.10;;;6.40;99.90;;;;;;5042582;28;20626;-71
2022/11/28 13:13:29;;;;;;;0.10;0.10;;;6.30;99.90;;;;;;5042035;28;20682;-70
2022/11/28 13:16:08;;;;;;;0.10;0.10;;;6.30;99.90;;;;;;5027605;28;20681;-71
2022/11/28 13:18:40;;;;;;;0.00;0.00;;;6.30;99.90;;;;;;5027296;28;20696;-70